createdAt,value
2023-04-26T00:01:19.580Z,3.80
2023-04-26T00:03:46.478Z,3.70
2023-04-26T00:06:14.200Z,3.60
2023-04-26T00:08:42.609Z,3.70
2023-04-26T00:11:09.386Z,3.80
2023-04-26T00:13:37.694Z,4.20
2023-04-26T00:16:05.490Z,4.00
2023-04-26T00:18:33.402Z,3.80
2023-04-26T00:20:59.913Z,3.90
2023-04-26T00:23:26.733Z,4.10
2023-04-26T00:25:53.373Z,4.10
2023-04-26T00:28:20.088Z,4.30
2023-04-26T00:30:48.245Z,4.50
2023-04-26T00:33:15.147Z,5.20
2023-04-26T00:35:41.992Z,4.30
2023-04-26T00:38:09.203Z,4.70
2023-04-26T00:40:36.040Z,3.70
2023-04-26T00:43:02.617Z,3.80
2023-04-26T00:45:29.795Z,4.70
2023-04-26T00:47:56.670Z,4.00
2023-04-26T00:50:23.215Z,4.20
2023-04-26T00:52:49.864Z,4.00
2023-04-26T00:55:16.415Z,4.60
2023-04-26T00:57:44.265Z,3.60
2023-04-26T01:00:11.151Z,3.90
2023-04-26T01:02:38.236Z,4.20
2023-04-26T01:05:06.822Z,4.00
2023-04-26T01:07:34.013Z,4.30
2023-04-26T01:10:05.684Z,4.00
2023-04-26T01:12:32.618Z,4.30
2023-04-26T01:14:59.338Z,3.80
2023-04-26T01:17:25.910Z,3.40
2023-04-26T01:19:52.826Z,4.50
2023-04-26T01:22:19.499Z,3.70
2023-04-26T01:24:48.170Z,3.80
2023-04-26T01:27:16.134Z,3.90
2023-04-26T01:29:42.822Z,4.00
2023-04-26T01:32:09.449Z,3.60
2023-04-26T01:34:36.731Z,3.80
2023-04-26T01:37:03.397Z,3.80
2023-04-26T01:39:30.761Z,3.80
2023-04-26T01:42:00.371Z,3.90
2023-04-26T01:44:26.974Z,3.50
2023-04-26T01:46:53.483Z,3.70
2023-04-26T01:49:19.913Z,4.80
2023-04-26T01:51:47.412Z,3.60
2023-04-26T01:54:14.205Z,3.30
2023-04-26T01:56:40.888Z,3.90
2023-04-26T01:59:07.529Z,3.60
2023-04-26T02:01:34.514Z,3.70
2023-04-26T02:04:01.098Z,3.90
2023-04-26T02:06:27.891Z,3.50
2023-04-26T02:08:54.737Z,4.60
2023-04-26T02:11:22.450Z,3.60
2023-04-26T02:13:48.954Z,3.90
2023-04-26T02:16:16.261Z,3.40
2023-04-26T02:18:43.760Z,3.70
2023-04-26T02:21:11.624Z,3.70
2023-04-26T02:23:38.262Z,3.50
2023-04-26T02:26:04.947Z,3.50
2023-04-26T02:28:31.625Z,3.60
2023-04-26T02:30:58.505Z,4.20
2023-04-26T02:33:25.227Z,3.60
2023-04-26T02:35:51.842Z,3.90
2023-04-26T02:38:19.324Z,3.90
2023-04-26T02:40:46.186Z,3.40
2023-04-26T02:43:13.064Z,3.40
2023-04-26T02:45:42.816Z,3.70
2023-04-26T02:48:10.923Z,3.70
2023-04-26T02:50:37.741Z,3.60
2023-04-26T02:53:04.541Z,3.90
2023-04-26T02:55:31.750Z,3.30
2023-04-26T02:57:58.397Z,3.20
2023-04-26T03:00:25.602Z,3.60
2023-04-26T03:02:52.504Z,4.20
2023-04-26T03:05:19.435Z,4.20
2023-04-26T03:07:46.988Z,4.40
2023-04-26T03:10:13.540Z,3.90
2023-04-26T03:12:40.954Z,3.90
2023-04-26T03:15:07.776Z,4.30
2023-04-26T03:17:34.875Z,4.30
2023-04-26T03:20:03.700Z,3.90
2023-04-26T03:22:30.810Z,4.20
2023-04-26T03:24:57.338Z,4.70
2023-04-26T03:27:24.680Z,4.50
2023-04-26T03:29:51.304Z,4.90
2023-04-26T03:32:18.220Z,3.90
2023-04-26T03:34:47.054Z,3.80
2023-04-26T03:37:13.843Z,4.20
2023-04-26T03:39:42.446Z,4.00
2023-04-26T03:42:09.787Z,4.50
2023-04-26T03:44:37.959Z,4.90
2023-04-26T03:47:04.916Z,5.00
2023-04-26T03:49:31.919Z,4.50
2023-04-26T03:51:58.882Z,4.60
2023-04-26T03:54:25.613Z,3.40
2023-04-26T03:56:52.298Z,3.30
2023-04-26T03:59:19.442Z,3.80
2023-04-26T04:01:46.070Z,3.70
2023-04-26T04:04:12.973Z,3.60
2023-04-26T04:06:41.388Z,4.10
2023-04-26T04:09:08.451Z,4.30
2023-04-26T04:11:36.477Z,4.50
2023-04-26T04:14:03.059Z,3.90
2023-04-26T04:16:29.769Z,4.10
2023-04-26T04:18:56.994Z,4.00
2023-04-26T04:21:23.647Z,4.20
2023-04-26T04:23:50.773Z,3.20
2023-04-26T04:26:18.588Z,3.20
2023-04-26T04:28:46.437Z,3.80
2023-04-26T04:31:13.335Z,3.40
2023-04-26T04:33:40.227Z,3.60
2023-04-26T04:36:07.641Z,4.20
2023-04-26T04:38:35.374Z,3.70
2023-04-26T04:41:03.966Z,3.50
2023-04-26T04:43:31.402Z,3.90
2023-04-26T04:45:58.431Z,3.70
2023-04-26T04:48:25.424Z,3.50
2023-04-26T04:50:52.134Z,3.50
2023-04-26T04:53:19.859Z,3.70
2023-04-26T04:55:46.628Z,4.10
2023-04-26T04:58:15.217Z,3.70
2023-04-26T05:00:42.836Z,4.20
2023-04-26T05:03:41.883Z,4.10
2023-04-26T05:06:09.421Z,4.60
2023-04-26T05:08:36.466Z,4.20
2023-04-26T05:11:05.387Z,4.30
2023-04-26T05:13:32.134Z,4.20
2023-04-26T05:15:59.409Z,4.30
2023-04-26T05:18:26.243Z,3.70
2023-04-26T05:20:53.492Z,4.90
2023-04-26T05:23:20.225Z,4.70
2023-04-26T05:25:46.958Z,4.30
2023-04-26T05:28:33.949Z,4.50
2023-04-26T05:31:19.225Z,4.10
2023-04-26T05:34:08.980Z,3.90
2023-04-26T05:36:37.446Z,4.10
2023-04-26T05:39:05.570Z,3.80
2023-04-26T05:41:32.676Z,4.00
2023-04-26T05:44:00.729Z,4.50
2023-04-26T05:46:27.875Z,4.20
2023-04-26T05:48:55.212Z,4.30
2023-04-26T05:51:22.168Z,4.40
2023-04-26T05:53:49.769Z,4.00
2023-04-26T05:56:16.945Z,4.60
2023-04-26T05:58:44.293Z,4.50
2023-04-26T06:01:11.799Z,3.90
2023-04-26T06:03:39.497Z,4.40
2023-04-26T06:06:08.037Z,3.90
2023-04-26T06:08:40.639Z,4.70
2023-04-26T06:11:09.415Z,4.50
2023-04-26T06:13:39.048Z,4.40
2023-04-26T06:16:06.496Z,4.50
2023-04-26T06:18:33.756Z,4.20
2023-04-26T06:21:00.416Z,4.70
2023-04-26T06:23:27.407Z,5.00
2023-04-26T06:25:54.270Z,4.90
2023-04-26T06:28:21.307Z,4.90
2023-04-26T06:30:48.197Z,5.00
2023-04-26T06:33:19.890Z,4.80
2023-04-26T06:35:47.166Z,4.90
2023-04-26T06:38:14.953Z,4.50
2023-04-26T06:40:46.363Z,4.50
2023-04-26T06:43:52.747Z,3.80
2023-04-26T06:46:56.869Z,4.10
2023-04-26T06:49:24.246Z,3.30
2023-04-26T06:51:53.789Z,4.50
2023-04-26T06:54:20.525Z,4.00
2023-04-26T06:56:47.288Z,4.60
2023-04-26T06:59:14.020Z,4.00
2023-04-26T07:01:40.849Z,3.60
2023-04-26T07:04:09.950Z,3.80
2023-04-26T07:06:38.424Z,3.60
2023-04-26T07:09:05.101Z,3.60
2023-04-26T07:11:32.034Z,3.50
2023-04-26T07:14:11.868Z,3.40
2023-04-26T07:16:40.387Z,3.40
2023-04-26T07:19:07.497Z,3.80
2023-04-26T07:21:34.097Z,3.50
2023-04-26T07:24:11.583Z,4.40
2023-04-26T07:26:41.133Z,4.10
2023-04-26T07:29:08.623Z,3.50
2023-04-26T07:31:35.231Z,3.80
2023-04-26T07:34:02.113Z,4.60
2023-04-26T07:36:29.008Z,4.10
2023-04-26T07:38:57.063Z,4.30
2023-04-26T07:41:23.972Z,4.40
2023-04-26T07:43:50.929Z,4.50
2023-04-26T07:46:18.072Z,4.80
2023-04-26T07:48:45.347Z,4.60
2023-04-26T07:51:12.507Z,5.30
2023-04-26T07:53:39.810Z,4.80
2023-04-26T07:56:09.273Z,4.30
2023-04-26T07:58:36.598Z,3.80
2023-04-26T08:01:03.665Z,5.30
2023-04-26T08:03:31.813Z,3.90
2023-04-26T08:05:58.886Z,4.10
2023-04-26T08:08:26.816Z,4.40
2023-04-26T08:10:54.095Z,4.60
2023-04-26T08:13:21.311Z,4.40
2023-04-26T08:15:48.065Z,3.90
2023-04-26T08:18:14.768Z,4.40
2023-04-26T08:20:41.407Z,4.00
2023-04-26T08:23:08.086Z,3.70
2023-04-26T08:25:34.805Z,4.20
2023-04-26T08:28:01.969Z,4.20
2023-04-26T08:30:29.059Z,4.70
2023-04-26T08:32:56.062Z,4.00
2023-04-26T08:35:22.669Z,4.00
2023-04-26T08:37:49.273Z,3.40
2023-04-26T08:40:15.951Z,3.90
2023-04-26T08:42:43.706Z,3.70
2023-04-26T08:45:12.752Z,4.30
2023-04-26T08:47:49.728Z,4.10
2023-04-26T08:50:20.142Z,4.10
2023-04-26T08:56:03.522Z,4.20
2023-04-26T08:59:04.531Z,3.70
2023-04-26T09:01:45.680Z,4.00
2023-04-26T09:04:23.914Z,3.80
2023-04-26T09:07:00.932Z,4.50
2023-04-26T09:09:35.189Z,4.00
2023-04-26T09:12:05.554Z,3.70
2023-04-26T09:14:39.807Z,4.00
2023-04-26T09:17:38.781Z,4.10
2023-04-26T09:20:26.890Z,3.80
2023-04-26T09:23:12.706Z,4.50
2023-04-26T09:25:42.300Z,4.30
2023-04-26T09:28:21.734Z,4.60
2023-04-26T09:30:51.661Z,3.70
2023-04-26T09:33:22.282Z,4.60
2023-04-26T09:35:55.833Z,4.20
2023-04-26T09:38:27.976Z,3.80
2023-04-26T09:41:05.117Z,3.40
2023-04-26T09:43:42.485Z,4.10
2023-04-26T09:46:26.840Z,3.60
2023-04-26T09:49:09.389Z,3.60
2023-04-26T09:52:05.753Z,3.80
2023-04-26T09:54:44.360Z,3.90
2023-04-26T09:57:22.555Z,4.20
2023-04-26T10:00:01.177Z,4.30
2023-04-26T10:02:32.753Z,4.20
2023-04-26T10:05:10.723Z,4.80
2023-04-26T10:07:42.237Z,4.20
2023-04-26T10:10:21.128Z,4.60
2023-04-26T10:12:49.225Z,4.00
2023-04-26T10:15:43.289Z,4.20
2023-04-26T10:18:11.518Z,4.60
2023-04-26T10:20:49.244Z,4.40
2023-04-26T10:23:20.928Z,4.80
2023-04-26T10:26:01.106Z,4.50
2023-04-26T10:28:55.339Z,4.40
2023-04-26T10:31:27.568Z,4.80
2023-04-26T10:34:37.108Z,4.50
2023-04-26T10:37:36.009Z,4.30
2023-04-26T10:40:45.307Z,4.30
2023-04-26T10:43:50.287Z,4.90
2023-04-26T10:46:47.932Z,4.10
2023-04-26T10:49:26.720Z,4.80
2023-04-26T10:52:13.100Z,4.80
2023-04-26T10:55:02.220Z,4.40
2023-04-26T10:57:53.891Z,4.00
2023-04-26T11:00:41.199Z,4.30
2023-04-26T11:03:35.525Z,4.10
2023-04-26T11:06:21.925Z,4.80
2023-04-26T11:09:47.936Z,4.30
2023-04-26T11:12:49.237Z,5.40
2023-04-26T11:16:14.552Z,5.30
2023-04-26T11:19:28.394Z,4.60
2023-04-26T11:21:57.871Z,5.10
2023-04-26T11:24:34.709Z,5.10
2023-04-26T11:27:09.815Z,4.70
2023-04-26T11:29:38.378Z,4.70
2023-04-26T11:32:14.278Z,4.70
2023-04-26T11:34:52.427Z,4.70
2023-04-26T11:37:31.264Z,4.70
2023-04-26T11:40:04.393Z,5.20
2023-04-26T11:42:38.118Z,4.80
2023-04-26T11:45:25.667Z,5.20
2023-04-26T11:47:55.647Z,4.80
2023-04-26T11:50:26.817Z,4.70
2023-04-26T11:52:58.474Z,5.80
2023-04-26T11:55:35.278Z,5.10
2023-04-26T11:58:15.240Z,4.50
2023-04-26T12:01:05.256Z,4.70
2023-04-26T12:03:39.678Z,4.30
2023-04-26T12:06:07.431Z,5.00
2023-04-26T12:08:38.845Z,4.30
2023-04-26T12:11:11.128Z,4.00
2023-04-26T12:13:40.673Z,4.00
2023-04-26T12:16:25.773Z,3.70
2023-04-26T12:18:59.028Z,3.90
2023-04-26T12:21:30.503Z,4.40
2023-04-26T12:24:06.853Z,4.60
2023-04-26T12:26:45.836Z,4.70
2023-04-26T12:29:38.595Z,4.80
2023-04-26T12:32:12.501Z,4.30
2023-04-26T12:34:50.108Z,4.70
2023-04-26T12:37:52.110Z,4.80
2023-04-26T12:40:37.191Z,5.00
2023-04-26T12:43:06.553Z,5.10
2023-04-26T12:45:50.431Z,4.30
2023-04-26T12:48:47.974Z,4.40
2023-04-26T12:51:20.037Z,4.50
2023-04-26T12:53:47.134Z,5.30
2023-04-26T12:56:23.991Z,5.50
2023-04-26T12:59:00.903Z,5.20
2023-04-26T13:01:29.564Z,4.80
2023-04-26T13:04:00.063Z,3.80
2023-04-26T13:06:32.079Z,4.30
2023-04-26T13:09:14.017Z,4.90
2023-04-26T13:11:58.841Z,4.40
2023-04-26T13:14:35.833Z,4.80
2023-04-26T13:17:17.689Z,5.30
2023-04-26T13:19:53.141Z,4.40
2023-04-26T13:25:17.798Z,5.70
2023-04-26T13:27:47.220Z,5.30
2023-04-26T13:30:15.680Z,5.30
2023-04-26T13:32:53.748Z,5.10
2023-04-26T13:35:23.774Z,5.80
2023-04-26T13:37:57.602Z,5.80
2023-04-26T13:40:29.082Z,5.30
2023-04-26T13:42:56.554Z,5.20
2023-04-26T13:45:23.822Z,6.10
2023-04-26T13:47:50.835Z,5.40
2023-04-26T13:50:19.097Z,6.60
2023-04-26T13:52:50.927Z,5.70
2023-04-26T13:55:25.136Z,6.00
2023-04-26T13:57:55.592Z,5.90
2023-04-26T14:00:23.501Z,6.40
2023-04-26T14:02:51.803Z,5.50
2023-04-26T14:05:19.719Z,5.00
2023-04-26T14:07:46.851Z,5.50
2023-04-26T14:10:14.743Z,6.10
2023-04-26T14:12:42.320Z,6.10
2023-04-26T14:15:09.671Z,5.70
2023-04-26T14:17:37.195Z,6.30
2023-04-26T14:20:04.924Z,5.80
2023-04-26T14:22:31.930Z,6.10
2023-04-26T14:27:45.712Z,6.40
2023-04-26T14:30:13.825Z,5.60
2023-04-26T14:32:41.787Z,6.60
2023-04-26T14:35:09.425Z,7.00
2023-04-26T14:37:36.545Z,5.50
2023-04-26T14:40:11.482Z,5.40
2023-04-26T14:42:45.182Z,5.10
2023-04-26T14:45:12.277Z,5.50
2023-04-26T14:47:39.178Z,5.60
2023-04-26T14:50:07.322Z,5.60
2023-04-26T14:52:35.489Z,5.00
2023-04-26T14:55:03.265Z,5.60
2023-04-26T14:57:31.907Z,4.50
2023-04-26T15:00:06.662Z,5.40
2023-04-26T15:02:34.383Z,5.20
2023-04-26T15:05:05.315Z,4.60
2023-04-26T15:07:33.305Z,4.60
2023-04-26T15:10:02.064Z,4.50
2023-04-26T15:12:35.314Z,5.40
2023-04-26T15:15:05.058Z,5.20
2023-04-26T15:17:36.133Z,5.30
2023-04-26T15:20:06.126Z,5.70
2023-04-26T15:22:34.169Z,4.90
2023-04-26T15:25:03.807Z,4.80
2023-04-26T15:27:34.197Z,4.70
2023-04-26T15:30:03.365Z,4.70
2023-04-26T15:32:32.878Z,5.00
2023-04-26T15:35:12.251Z,4.10
2023-04-26T15:37:40.409Z,5.00
2023-04-26T15:40:09.912Z,4.80
2023-04-26T15:42:40.309Z,5.40
2023-04-26T15:45:13.741Z,4.50
2023-04-26T15:48:17.226Z,4.90
2023-04-26T15:50:44.713Z,5.20
2023-04-26T15:53:11.917Z,5.00
2023-04-26T15:55:39.199Z,5.20
2023-04-26T15:58:14.145Z,5.30
2023-04-26T16:00:50.390Z,4.90
2023-04-26T16:03:17.543Z,5.70
2023-04-26T16:05:45.182Z,5.20
2023-04-26T16:08:14.830Z,5.10
2023-04-26T16:10:45.746Z,5.20
2023-04-26T16:13:12.771Z,6.00
2023-04-26T16:15:42.943Z,5.70
2023-04-26T16:18:10.345Z,6.00
2023-04-26T16:20:38.667Z,5.80
2023-04-26T16:23:06.924Z,6.00
2023-04-26T16:25:34.289Z,5.60
2023-04-26T16:28:01.655Z,5.80
2023-04-26T16:30:31.769Z,5.30
2023-04-26T16:32:58.784Z,5.70
2023-04-26T16:35:25.749Z,5.80
2023-04-26T16:37:52.721Z,6.30
2023-04-26T16:40:19.530Z,5.40
2023-04-26T16:42:46.372Z,5.90
2023-04-26T16:45:16.084Z,5.40
2023-04-26T16:47:43.305Z,5.80
2023-04-26T16:50:10.749Z,5.50
2023-04-26T16:52:38.141Z,5.60
2023-04-26T16:55:05.664Z,6.20
2023-04-26T16:57:32.755Z,6.10
2023-04-26T17:00:00.365Z,6.30
2023-04-26T17:02:27.821Z,6.00
2023-04-26T17:04:55.113Z,6.40
2023-04-26T17:07:22.153Z,6.70
2023-04-26T17:09:52.204Z,6.20
2023-04-26T17:12:19.006Z,6.10
2023-04-26T17:14:47.412Z,7.20
2023-04-26T17:17:14.223Z,6.70
2023-04-26T17:19:41.517Z,6.90
2023-04-26T17:22:08.625Z,6.70
2023-04-26T17:24:35.807Z,6.50
2023-04-26T17:27:02.774Z,5.80
2023-04-26T17:29:29.991Z,7.30
2023-04-26T17:31:57.109Z,7.00
2023-04-26T17:34:24.300Z,6.90
2023-04-26T17:36:52.391Z,7.20
2023-04-26T17:39:19.508Z,6.90
2023-04-26T17:41:46.671Z,6.30
2023-04-26T17:44:14.104Z,6.80
2023-04-26T17:46:40.985Z,7.00
2023-04-26T17:49:09.904Z,6.60
2023-04-26T17:51:39.005Z,7.40
2023-04-26T17:54:07.917Z,8.10
2023-04-26T17:56:36.019Z,6.90
2023-04-26T17:59:03.768Z,7.20
2023-04-26T18:01:32.908Z,7.00
2023-04-26T18:04:02.806Z,7.60
2023-04-26T18:06:31.483Z,7.70
2023-04-26T18:08:59.309Z,6.80
2023-04-26T18:11:26.914Z,7.30
2023-04-26T18:13:58.778Z,7.10
2023-04-26T18:16:26.813Z,7.40
2023-04-26T18:18:54.898Z,7.20
2023-04-26T18:21:22.574Z,8.20
2023-04-26T18:23:52.191Z,7.50
2023-04-26T18:26:22.620Z,7.30
2023-04-26T18:28:50.258Z,7.60
2023-04-26T18:31:17.883Z,6.70
2023-04-26T18:33:47.630Z,7.20
2023-04-26T18:36:16.214Z,6.70
2023-04-26T18:38:44.773Z,7.50
2023-04-26T18:41:12.636Z,7.20
2023-04-26T18:43:40.214Z,7.80
2023-04-26T18:46:08.003Z,8.30
2023-04-26T18:48:36.314Z,8.60
2023-04-26T18:51:04.030Z,8.40
2023-04-26T18:53:36.680Z,9.20
2023-04-26T18:56:04.059Z,7.70
2023-04-26T18:58:32.728Z,9.20
2023-04-26T19:01:01.084Z,9.60
2023-04-26T19:03:28.868Z,9.00
2023-04-26T19:05:56.236Z,8.20
2023-04-26T19:08:26.477Z,9.80
2023-04-26T19:10:55.036Z,9.50
2023-04-26T19:13:23.748Z,10.00
2023-04-26T19:15:51.551Z,10.30
2023-04-26T19:18:19.589Z,10.10
2023-04-26T19:20:49.597Z,10.40
2023-04-26T19:23:17.136Z,10.30
2023-04-26T19:25:44.473Z,10.30
2023-04-26T19:28:12.183Z,10.20
2023-04-26T19:30:39.282Z,9.30
2023-04-26T19:33:06.878Z,9.70
2023-04-26T19:35:34.563Z,9.10
2023-04-26T19:38:06.200Z,9.60
2023-04-26T19:40:37.971Z,9.10
2023-04-26T19:43:05.159Z,8.80
2023-04-26T19:45:32.514Z,7.90
2023-04-26T19:47:59.713Z,7.90
2023-04-26T19:50:27.038Z,8.90
2023-04-26T19:52:53.949Z,8.90
2023-04-26T19:55:21.053Z,7.70
2023-04-26T19:57:51.821Z,7.60
2023-04-26T20:00:20.781Z,8.00
2023-04-26T20:02:49.371Z,8.20
2023-04-26T20:05:16.709Z,8.70
2023-04-26T20:07:43.843Z,9.80
2023-04-26T20:10:11.092Z,8.50
2023-04-26T20:12:38.746Z,9.30
2023-04-26T20:15:06.934Z,9.20
2023-04-26T20:17:44.695Z,9.80
2023-04-26T20:20:11.995Z,10.50
2023-04-26T20:22:40.978Z,9.70
2023-04-26T20:25:08.732Z,9.40
2023-04-26T20:27:37.832Z,9.60
2023-04-26T20:30:06.603Z,8.70
2023-04-26T20:32:34.395Z,8.80
2023-04-26T20:35:01.759Z,9.00
2023-04-26T20:37:29.513Z,9.50
2023-04-26T20:39:57.343Z,10.10
2023-04-26T20:42:24.790Z,9.70
2023-04-26T20:44:54.651Z,10.50
2023-04-26T20:47:22.123Z,9.30
2023-04-26T20:49:49.244Z,9.70
2023-04-26T20:52:16.704Z,10.30
2023-04-26T20:54:43.706Z,10.70
2023-04-26T20:57:10.792Z,11.10
2023-04-26T20:59:40.911Z,11.80
2023-04-26T21:02:11.044Z,12.00
2023-04-26T21:04:41.106Z,11.70
2023-04-26T21:07:08.900Z,13.10
2023-04-26T21:09:37.386Z,12.80
2023-04-26T21:12:05.357Z,13.70
2023-04-26T21:14:33.002Z,10.90
2023-04-26T21:17:05.175Z,6.80
2023-04-26T21:19:32.853Z,5.40
2023-04-26T21:21:59.981Z,5.60
2023-04-26T21:24:27.970Z,5.20
2023-04-26T21:26:55.551Z,4.80
2023-04-26T21:29:22.855Z,4.10
2023-04-26T21:31:49.960Z,2.60
2023-04-26T21:34:17.392Z,1.60
2023-04-26T21:36:44.577Z,1.10
2023-04-26T21:39:12.172Z,1.10
2023-04-26T21:41:41.749Z,1.00
2023-04-26T21:44:08.823Z,0.80
2023-04-26T21:46:36.194Z,0.70
2023-04-26T21:49:03.591Z,0.80
2023-04-26T21:51:30.940Z,0.50
2023-04-26T21:53:58.254Z,0.70
2023-04-26T21:56:25.756Z,0.80
2023-04-26T21:58:53.062Z,0.60
2023-04-26T22:01:20.625Z,0.80
2023-04-26T22:04:06.822Z,0.60
2023-04-26T22:06:37.547Z,0.60
2023-04-26T22:09:04.999Z,0.50
2023-04-26T22:11:32.030Z,0.90
2023-04-26T22:13:59.110Z,0.80
2023-04-26T22:16:26.278Z,0.70
2023-04-26T22:18:53.487Z,0.70
2023-04-26T22:21:20.657Z,0.90
2023-04-26T22:23:48.089Z,0.70
2023-04-26T22:26:17.993Z,0.70
2023-04-26T22:28:47.669Z,0.50
2023-04-26T22:31:14.813Z,0.60
2023-04-26T22:33:42.058Z,0.70
2023-04-26T22:36:09.481Z,0.70
2023-04-26T22:38:36.684Z,0.70
2023-04-26T22:41:07.443Z,1.10
2023-04-26T22:43:35.230Z,0.80
2023-04-26T22:46:02.706Z,0.80
2023-04-26T22:48:29.756Z,0.60
2023-04-26T22:51:02.273Z,0.80
2023-04-26T22:53:29.710Z,0.60
2023-04-26T22:55:56.899Z,0.60
2023-04-26T22:58:25.333Z,0.60
2023-04-26T23:00:52.571Z,0.60
2023-04-26T23:03:19.888Z,0.70
2023-04-26T23:05:47.449Z,0.60
2023-04-26T23:08:14.453Z,0.70
2023-04-26T23:10:41.646Z,0.70
2023-04-26T23:13:09.147Z,0.40
2023-04-26T23:15:36.412Z,0.60
2023-04-26T23:18:04.176Z,0.40
2023-04-26T23:20:31.483Z,0.80
2023-04-26T23:22:58.665Z,0.50
2023-04-26T23:25:25.918Z,0.40
2023-04-26T23:27:53.189Z,0.70
2023-04-26T23:30:20.169Z,0.50
2023-04-26T23:32:47.286Z,0.50
2023-04-26T23:35:14.569Z,0.40
2023-04-26T23:37:41.621Z,0.40
2023-04-26T23:40:10.858Z,0.50
2023-04-26T23:42:38.165Z,0.60
2023-04-26T23:45:05.773Z,0.40
2023-04-26T23:47:33.064Z,0.60
2023-04-26T23:50:00.374Z,0.80
2023-04-26T23:52:27.735Z,0.60
2023-04-26T23:54:54.991Z,0.50
2023-04-26T23:57:22.107Z,0.60
2023-04-26T23:59:49.450Z,0.40
